createdAt,value
2023-04-24T00:01:13.951Z,96057.88
2023-04-24T00:03:42.288Z,96063.22
2023-04-24T00:06:10.349Z,96055.19
2023-04-24T00:08:38.263Z,96057.53
2023-04-24T00:11:06.210Z,96058.19
2023-04-24T00:13:35.568Z,96067.94
2023-04-24T00:16:03.471Z,96063.56
2023-04-24T00:18:31.685Z,96058.84
2023-04-24T00:20:59.762Z,96061.19
2023-04-24T00:23:27.689Z,96055.69
2023-04-24T00:25:55.627Z,96060.03
2023-04-24T00:28:23.570Z,96043.94
2023-04-24T00:30:52.956Z,96056.50
2023-04-24T00:33:21.431Z,96057.50
2023-04-24T00:35:49.419Z,96059.72
2023-04-24T00:38:17.447Z,96059.88
2023-04-24T00:40:45.450Z,96055.84
2023-04-24T00:43:13.605Z,96052.16
2023-04-24T00:45:41.525Z,96052.50
2023-04-24T00:48:10.898Z,96042.47
2023-04-24T00:50:39.096Z,96052.00
2023-04-24T00:53:07.198Z,96041.59
2023-04-24T00:55:35.191Z,96033.59
2023-04-24T00:58:03.139Z,96033.09
2023-04-24T01:00:32.007Z,96040.97
2023-04-24T01:03:00.542Z,96039.31
2023-04-24T01:05:29.966Z,96037.97
2023-04-24T01:07:57.870Z,96038.44
2023-04-24T01:10:26.086Z,96036.44
2023-04-24T01:12:53.996Z,96038.63
2023-04-24T01:15:22.055Z,96038.97
2023-04-24T01:17:49.966Z,96041.63
2023-04-24T01:20:18.238Z,96039.47
2023-04-24T01:22:47.584Z,96041.63
2023-04-24T01:25:15.667Z,96031.44
2023-04-24T01:27:45.920Z,96033.59
2023-04-24T01:30:14.980Z,96044.81
2023-04-24T01:32:45.147Z,96037.97
2023-04-24T01:35:13.064Z,96037.13
2023-04-24T01:37:40.978Z,96027.59
2023-04-24T01:40:11.210Z,96024.91
2023-04-24T01:42:39.092Z,96030.63
2023-04-24T01:45:08.023Z,96022.91
2023-04-24T01:47:36.005Z,96022.25
2023-04-24T01:50:04.329Z,96021.22
2023-04-24T01:52:34.276Z,96021.91
2023-04-24T01:55:02.416Z,96020.22
2023-04-24T01:57:32.901Z,96028.75
2023-04-24T02:00:00.954Z,96020.25
2023-04-24T02:02:29.903Z,96019.06
2023-04-24T02:04:58.041Z,96012.69
2023-04-24T02:07:26.175Z,96025.44
2023-04-24T02:09:54.050Z,96026.75
2023-04-24T02:12:22.326Z,96032.28
2023-04-24T02:14:51.744Z,96047.00
2023-04-24T02:17:20.160Z,96052.19
2023-04-24T02:19:48.184Z,96059.72
2023-04-24T02:22:16.397Z,96053.16
2023-04-24T02:24:44.317Z,96050.69
2023-04-24T02:27:12.519Z,96053.00
2023-04-24T02:29:40.544Z,96051.16
2023-04-24T02:32:12.545Z,96058.84
2023-04-24T02:34:40.738Z,96067.13
2023-04-24T02:37:08.708Z,96069.16
2023-04-24T02:39:36.889Z,96060.47
2023-04-24T02:42:04.854Z,96062.78
2023-04-24T02:44:32.830Z,96059.94
2023-04-24T02:47:01.075Z,96076.41
2023-04-24T02:49:30.832Z,96075.72
2023-04-24T02:51:58.769Z,96083.38
2023-04-24T02:54:26.790Z,96086.22
2023-04-24T02:56:54.756Z,96081.72
2023-04-24T02:59:22.878Z,96087.06
2023-04-24T03:01:50.976Z,96089.88
2023-04-24T03:04:21.512Z,96093.63
2023-04-24T03:06:52.797Z,96096.22
2023-04-24T03:09:20.720Z,96101.06
2023-04-24T03:11:49.620Z,96112.53
2023-04-24T03:14:17.691Z,96104.31
2023-04-24T03:16:45.910Z,96100.16
2023-04-24T03:19:13.895Z,96100.16
2023-04-24T03:21:42.126Z,96110.91
2023-04-24T03:24:11.478Z,96101.25
2023-04-24T03:26:39.358Z,96106.41
2023-04-24T03:29:07.285Z,96109.31
2023-04-24T03:31:35.627Z,96112.41
2023-04-24T03:34:03.694Z,96109.69
2023-04-24T03:36:31.608Z,96114.63
2023-04-24T03:38:59.540Z,96105.97
2023-04-24T03:41:28.872Z,96106.91
2023-04-24T03:43:57.064Z,96111.66
2023-04-24T03:46:25.401Z,96118.63
2023-04-24T03:48:53.296Z,96102.59
2023-04-24T03:51:21.278Z,96119.16
2023-04-24T03:53:49.263Z,96115.16
2023-04-24T03:56:17.211Z,96119.06
2023-04-24T03:58:46.530Z,96116.38
2023-04-24T04:01:17.025Z,96118.88
2023-04-24T04:03:45.190Z,96119.16
2023-04-24T04:06:14.162Z,96116.63
2023-04-24T04:08:42.070Z,96115.56
2023-04-24T04:11:10.021Z,96112.56
2023-04-24T04:13:37.970Z,96128.13
2023-04-24T04:16:07.784Z,96118.72
2023-04-24T04:18:36.495Z,96118.38
2023-04-24T04:21:04.468Z,96114.88
2023-04-24T04:23:33.123Z,96117.00
2023-04-24T04:26:01.359Z,96119.16
2023-04-24T04:28:29.242Z,96114.53
2023-04-24T04:30:58.550Z,96120.59
2023-04-24T04:33:27.947Z,96120.66
2023-04-24T04:35:57.703Z,96118.78
2023-04-24T04:38:27.790Z,96121.59
2023-04-24T04:40:57.348Z,96124.91
2023-04-24T04:43:25.517Z,96125.81
2023-04-24T04:45:53.579Z,96116.00
2023-04-24T04:48:21.476Z,96126.28
2023-04-24T04:50:50.771Z,96127.28
2023-04-24T04:53:18.748Z,96122.25
2023-04-24T04:55:47.539Z,96131.97
2023-04-24T04:58:15.432Z,96133.03
2023-04-24T05:00:43.523Z,96123.28
2023-04-24T05:03:20.732Z,96122.72
2023-04-24T05:05:51.130Z,96134.06
2023-04-24T05:08:26.995Z,96131.63
2023-04-24T05:10:56.014Z,96132.38
2023-04-24T05:13:35.588Z,96123.56
2023-04-24T05:16:07.936Z,96121.84
2023-04-24T05:18:35.939Z,96135.06
2023-04-24T05:21:05.256Z,96132.88
2023-04-24T05:23:33.124Z,96139.25
2023-04-24T05:26:01.128Z,96149.09
2023-04-24T05:28:30.360Z,96140.88
2023-04-24T05:31:00.465Z,96138.75
2023-04-24T05:33:28.954Z,96144.53
2023-04-24T05:35:56.913Z,96150.88
2023-04-24T05:38:26.527Z,96141.28
2023-04-24T05:40:54.472Z,96146.25
2023-04-24T05:43:22.417Z,96148.47
2023-04-24T05:45:50.685Z,96152.38
2023-04-24T05:48:18.774Z,96152.84
2023-04-24T05:50:48.364Z,96161.75
2023-04-24T05:53:17.267Z,96155.88
2023-04-24T05:55:55.415Z,96162.13
2023-04-24T05:58:28.498Z,96160.00
2023-04-24T06:01:07.649Z,96162.72
2023-04-24T06:03:42.470Z,96168.34
2023-04-24T06:06:10.632Z,96169.25
2023-04-24T06:08:45.269Z,96170.69
2023-04-24T06:11:20.149Z,96176.25
2023-04-24T06:13:48.433Z,96181.97
2023-04-24T06:16:16.401Z,96188.00
2023-04-24T06:18:51.970Z,96189.84
2023-04-24T06:21:26.530Z,96185.84
2023-04-24T06:23:59.198Z,96193.13
2023-04-24T06:26:28.730Z,96185.56
2023-04-24T06:28:57.963Z,96196.09
2023-04-24T06:31:28.358Z,96193.50
2023-04-24T06:33:58.920Z,96195.75
2023-04-24T06:36:27.367Z,96190.19
2023-04-24T06:38:55.263Z,96189.69
2023-04-24T06:41:30.664Z,96187.94
2023-04-24T06:44:04.149Z,96193.84
2023-04-24T06:46:32.453Z,96196.91
2023-04-24T06:49:03.754Z,96193.28
2023-04-24T06:51:37.476Z,96198.97
2023-04-24T06:54:05.487Z,96197.22
2023-04-24T06:56:35.344Z,96197.13
2023-04-24T06:59:04.617Z,96194.91
2023-04-24T07:01:33.231Z,96198.81
2023-04-24T07:04:01.767Z,96198.88
2023-04-24T07:06:31.688Z,96205.69
2023-04-24T07:08:59.692Z,96205.50
2023-04-24T07:11:30.231Z,96203.22
2023-04-24T07:13:58.170Z,96210.50
2023-04-24T07:16:28.208Z,96199.03
2023-04-24T07:18:56.176Z,96203.69
2023-04-24T07:21:24.189Z,96202.47
2023-04-24T07:23:52.097Z,96198.66
2023-04-24T07:26:20.355Z,96205.03
2023-04-24T07:28:48.322Z,96192.56
2023-04-24T07:31:16.301Z,96198.59
2023-04-24T07:33:45.628Z,96209.47
2023-04-24T07:36:17.237Z,96209.72
2023-04-24T07:38:45.093Z,96218.69
2023-04-24T07:41:13.393Z,96208.06
2023-04-24T07:43:41.511Z,96215.44
2023-04-24T07:46:09.564Z,96224.91
2023-04-24T07:48:37.530Z,96216.22
2023-04-24T07:51:06.829Z,96219.78
2023-04-24T07:53:34.773Z,96218.66
2023-04-24T07:56:03.048Z,96219.81
2023-04-24T07:58:30.979Z,96226.59
2023-04-24T08:00:58.973Z,96231.97
2023-04-24T08:03:27.074Z,96246.25
2023-04-24T08:05:55.103Z,96240.25
2023-04-24T08:08:24.562Z,96240.94
2023-04-24T08:10:52.661Z,96245.19
2023-04-24T08:13:20.831Z,96243.16
2023-04-24T08:15:49.110Z,96245.19
2023-04-24T08:18:17.062Z,96251.56
2023-04-24T08:20:46.453Z,96255.31
2023-04-24T08:23:14.455Z,96249.94
2023-04-24T08:25:43.732Z,96262.75
2023-04-24T08:28:11.814Z,96277.16
2023-04-24T08:30:43.104Z,96291.22
2023-04-24T08:33:14.709Z,96302.22
2023-04-24T08:35:43.092Z,96292.44
2023-04-24T08:38:10.947Z,96289.03
2023-04-24T08:40:39.296Z,96283.88
2023-04-24T08:43:08.604Z,96285.41
2023-04-24T08:45:36.554Z,96292.16
2023-04-24T08:48:04.922Z,96286.13
2023-04-24T08:50:34.055Z,96290.31
2023-04-24T08:53:04.597Z,96286.28
2023-04-24T08:55:33.135Z,96284.03
2023-04-24T08:58:01.955Z,96285.00
2023-04-24T09:00:31.356Z,96290.44
2023-04-24T09:02:59.393Z,96288.53
2023-04-24T09:05:28.557Z,96308.13
2023-04-24T09:07:57.409Z,96307.53
2023-04-24T09:10:26.280Z,96312.03
2023-04-24T09:13:04.898Z,96333.06
2023-04-24T09:15:34.555Z,96337.03
2023-04-24T09:18:02.738Z,96344.28
2023-04-24T09:20:31.189Z,96357.88
2023-04-24T09:22:59.174Z,96353.97
2023-04-24T09:25:33.005Z,96356.47
2023-04-24T09:28:02.963Z,96355.94
2023-04-24T09:30:31.013Z,96352.78
2023-04-24T09:33:16.653Z,96356.78
2023-04-24T09:35:48.689Z,96362.44
2023-04-24T09:38:19.866Z,96367.59
2023-04-24T09:40:48.055Z,96365.56
2023-04-24T09:43:16.200Z,96383.38
2023-04-24T09:45:44.430Z,96398.81
2023-04-24T09:48:12.358Z,96409.63
2023-04-24T09:50:41.769Z,96411.00
2023-04-24T09:53:11.668Z,96432.75
2023-04-24T09:55:42.011Z,96424.47
2023-04-24T09:58:10.312Z,96429.56
2023-04-24T10:00:38.725Z,96438.94
2023-04-24T10:03:06.933Z,96445.25
2023-04-24T10:05:35.478Z,96445.41
2023-04-24T10:08:05.514Z,96460.41
2023-04-24T10:10:33.591Z,96464.47
2023-04-24T10:13:01.641Z,96475.13
2023-04-24T10:15:29.877Z,96483.00
2023-04-24T10:17:57.768Z,96480.34
2023-04-24T10:20:26.487Z,96488.19
2023-04-24T10:22:55.113Z,96491.00
2023-04-24T10:25:26.270Z,96496.72
2023-04-24T10:27:54.472Z,96493.38
2023-04-24T10:30:22.708Z,96498.03
2023-04-24T10:32:50.731Z,96505.00
2023-04-24T10:35:18.708Z,96509.34
2023-04-24T10:37:48.074Z,96509.22
2023-04-24T10:40:19.465Z,96521.44
2023-04-24T10:42:50.874Z,96519.88
2023-04-24T10:45:20.023Z,96499.97
2023-04-24T10:47:54.005Z,96530.00
2023-04-24T10:50:21.911Z,96549.91
2023-04-24T10:52:52.215Z,96543.75
2023-04-24T10:55:48.272Z,96537.00
2023-04-24T10:58:18.694Z,96546.41
2023-04-24T11:00:46.910Z,96554.16
2023-04-24T11:03:29.017Z,96558.38
2023-04-24T11:06:01.600Z,96556.81
2023-04-24T11:08:31.539Z,96570.72
2023-04-24T11:11:03.789Z,96574.63
2023-04-24T11:14:05.237Z,96580.94
2023-04-24T11:16:35.573Z,96583.63
2023-04-24T11:19:05.156Z,96580.56
2023-04-24T11:21:43.458Z,96585.47
2023-04-24T11:24:27.753Z,96600.75
2023-04-24T11:26:56.161Z,96593.44
2023-04-24T11:29:25.149Z,96605.34
2023-04-24T11:31:55.185Z,96598.47
2023-04-24T11:34:24.365Z,96602.16
2023-04-24T11:36:52.283Z,96605.28
2023-04-24T11:39:20.181Z,96606.09
2023-04-24T11:41:48.346Z,96607.94
2023-04-24T11:44:16.412Z,96610.16
2023-04-24T11:46:44.671Z,96608.34
2023-04-24T11:49:13.967Z,96618.84
2023-04-24T11:51:51.485Z,96616.44
2023-04-24T11:54:21.787Z,96618.16
2023-04-24T11:56:49.873Z,96611.97
2023-04-24T11:59:17.920Z,96626.03
2023-04-24T12:01:46.802Z,96630.25
2023-04-24T12:04:18.257Z,96642.03
2023-04-24T12:07:01.400Z,96637.69
2023-04-24T12:09:29.306Z,96642.31
2023-04-24T12:11:58.353Z,96650.91
2023-04-24T12:14:26.705Z,96644.72
2023-04-24T12:16:54.588Z,96643.28
2023-04-24T12:19:24.763Z,96650.88
2023-04-24T12:22:02.636Z,96639.03
2023-04-24T12:24:32.772Z,96643.19
2023-04-24T12:27:02.386Z,96646.81
2023-04-24T12:29:30.356Z,96651.22
2023-04-24T12:31:58.264Z,96650.34
2023-04-24T12:34:39.801Z,96646.56
2023-04-24T12:37:18.016Z,96653.19
2023-04-24T12:39:59.971Z,96653.41
2023-04-24T12:42:28.638Z,96647.66
2023-04-24T12:44:58.888Z,96653.03
2023-04-24T12:48:08.997Z,96659.97
2023-04-24T12:51:29.594Z,96669.97
2023-04-24T12:53:57.514Z,96665.09
2023-04-24T12:56:26.188Z,96670.56
2023-04-24T12:58:54.070Z,96670.09
2023-04-24T13:01:22.392Z,96675.03
2023-04-24T13:03:51.675Z,96673.09
2023-04-24T13:06:22.015Z,96669.72
2023-04-24T13:08:49.968Z,96670.91
2023-04-24T13:11:17.881Z,96662.44
2023-04-24T13:13:45.798Z,96667.47
2023-04-24T13:16:13.765Z,96654.53
2023-04-24T13:18:42.465Z,96660.88
2023-04-24T13:21:10.431Z,96657.41
2023-04-24T13:23:39.878Z,96651.13
2023-04-24T13:26:08.624Z,96653.44
2023-04-24T13:28:36.854Z,96658.09
2023-04-24T13:31:09.753Z,96655.56
2023-04-24T13:33:38.117Z,96648.53
2023-04-24T13:36:06.172Z,96646.09
2023-04-24T13:38:34.114Z,96642.56
2023-04-24T13:41:03.898Z,96638.31
2023-04-24T13:43:40.906Z,96647.25
2023-04-24T13:46:16.425Z,96654.81
2023-04-24T13:48:45.152Z,96639.72
2023-04-24T13:51:13.246Z,96649.25
2023-04-24T13:53:41.669Z,96636.66
2023-04-24T13:56:11.083Z,96637.44
2023-04-24T13:58:39.507Z,96631.94
2023-04-24T14:01:07.458Z,96643.22
2023-04-24T14:03:35.919Z,96648.09
2023-04-24T14:06:05.266Z,96643.78
2023-04-24T14:08:33.263Z,96637.09
2023-04-24T14:11:02.419Z,96637.34
2023-04-24T14:13:33.942Z,96632.94
2023-04-24T14:16:01.867Z,96640.28
2023-04-24T14:18:30.096Z,96643.06
2023-04-24T14:20:57.989Z,96639.09
2023-04-24T14:23:25.837Z,96640.66
2023-04-24T14:25:54.207Z,96638.69
2023-04-24T14:28:22.558Z,96645.97
2023-04-24T14:30:51.889Z,96650.03
2023-04-24T14:33:19.840Z,96649.91
2023-04-24T14:35:48.304Z,96647.53
2023-04-24T14:38:16.463Z,96648.38
2023-04-24T14:41:05.709Z,96662.44
2023-04-24T14:43:33.738Z,96657.41
2023-04-24T14:46:03.149Z,96655.56
2023-04-24T14:48:31.528Z,96663.75
2023-04-24T14:50:59.412Z,96655.97
2023-04-24T14:53:27.353Z,96665.66
2023-04-24T14:55:55.705Z,96667.03
2023-04-24T14:58:24.171Z,96670.00
2023-04-24T15:00:53.067Z,96676.06
2023-04-24T15:03:23.214Z,96675.53
2023-04-24T15:05:51.548Z,96673.72
2023-04-24T15:08:19.550Z,96663.63
2023-04-24T15:10:49.024Z,96671.19
2023-04-24T15:13:16.936Z,96658.88
2023-04-24T15:15:44.912Z,96656.00
2023-04-24T15:18:13.199Z,96667.09
2023-04-24T15:20:42.945Z,96664.34
2023-04-24T15:23:11.048Z,96675.63
2023-04-24T15:25:38.983Z,96670.50
2023-04-24T15:28:07.268Z,96664.69
2023-04-24T15:30:35.150Z,96680.34
2023-04-24T15:33:03.114Z,96674.31
2023-04-24T15:35:31.652Z,96669.19
2023-04-24T15:38:01.011Z,96668.66
2023-04-24T15:40:28.900Z,96673.38
2023-04-24T15:42:56.897Z,96673.34
2023-04-24T15:45:24.764Z,96671.50
2023-04-24T15:47:52.714Z,96675.09
2023-04-24T15:50:22.675Z,96671.34
2023-04-24T15:52:50.663Z,96670.34
2023-04-24T15:55:19.940Z,96672.75
2023-04-24T15:57:50.249Z,96675.03
2023-04-24T16:00:19.410Z,96675.38
2023-04-24T16:02:47.662Z,96671.06
2023-04-24T16:05:20.534Z,96670.59
2023-04-24T16:07:51.160Z,96668.81
2023-04-24T16:10:20.866Z,96677.06
2023-04-24T16:12:48.845Z,96672.00
2023-04-24T16:15:16.778Z,96678.75
2023-04-24T16:17:44.770Z,96671.53
2023-04-24T16:20:13.280Z,96671.31
2023-04-24T16:22:44.489Z,96674.53
2023-04-24T16:25:15.311Z,96670.47
2023-04-24T16:27:44.817Z,96685.25
2023-04-24T16:30:13.397Z,96674.97
2023-04-24T16:32:41.280Z,96677.72
2023-04-24T16:35:09.842Z,96681.88
2023-04-24T16:37:37.675Z,96683.81
2023-04-24T16:40:11.060Z,96676.13
2023-04-24T16:42:39.188Z,96688.72
2023-04-24T16:45:10.416Z,96704.13
2023-04-24T16:47:38.414Z,96687.75
2023-04-24T16:50:07.427Z,96692.19
2023-04-24T16:52:35.343Z,96691.94
2023-04-24T16:55:03.526Z,96691.84
2023-04-24T16:57:31.446Z,96687.41
2023-04-24T16:59:59.339Z,96697.63
2023-04-24T17:02:29.144Z,96700.97
2023-04-24T17:04:57.319Z,96698.88
2023-04-24T17:07:25.298Z,96701.88
2023-04-24T17:09:53.139Z,96703.41
2023-04-24T17:12:21.022Z,96698.91
2023-04-24T17:14:49.273Z,96702.94
2023-04-24T17:17:18.452Z,96704.16
2023-04-24T17:19:47.865Z,96714.78
2023-04-24T17:22:15.783Z,96711.97
2023-04-24T17:24:43.994Z,96715.25
2023-04-24T17:27:15.720Z,96707.00
2023-04-24T17:29:47.571Z,96708.50
2023-04-24T17:32:18.948Z,96713.22
2023-04-24T17:34:49.156Z,96718.91
2023-04-24T17:37:19.862Z,96722.13
2023-04-24T17:39:48.288Z,96717.84
2023-04-24T17:42:16.283Z,96715.69
2023-04-24T17:44:44.507Z,96720.50
2023-04-24T17:47:12.351Z,96725.44
2023-04-24T17:49:40.490Z,96722.84
2023-04-24T17:52:09.828Z,96730.69
2023-04-24T17:54:38.184Z,96728.69
2023-04-24T17:57:06.103Z,96724.72
2023-04-24T17:59:34.046Z,96732.56
2023-04-24T18:02:01.974Z,96736.25
2023-04-24T18:04:30.337Z,96736.25
2023-04-24T18:06:58.346Z,96745.09
2023-04-24T18:09:27.844Z,96746.38
2023-04-24T18:11:57.222Z,96740.91
2023-04-24T18:14:25.765Z,96743.03
2023-04-24T18:16:53.792Z,96743.47
2023-04-24T18:19:21.668Z,96744.88
2023-04-24T18:21:49.666Z,96750.41
2023-04-24T18:24:17.605Z,96742.91
2023-04-24T18:26:47.182Z,96752.56
2023-04-24T18:29:15.100Z,96755.66
2023-04-24T18:31:43.067Z,96760.34
2023-04-24T18:34:11.281Z,96761.34
2023-04-24T18:36:39.194Z,96771.03
2023-04-24T18:39:07.144Z,96776.38
2023-04-24T18:41:35.695Z,96778.06
2023-04-24T18:44:05.034Z,96783.41
2023-04-24T18:46:37.961Z,96779.47
2023-04-24T18:49:06.739Z,96777.38
2023-04-24T18:51:46.703Z,96783.41
2023-04-24T18:54:20.794Z,96788.63
2023-04-24T18:56:48.918Z,96792.97
2023-04-24T18:59:20.689Z,96790.72
2023-04-24T19:01:48.767Z,96794.50
2023-04-24T19:04:18.088Z,96795.34
2023-04-24T19:06:46.074Z,96801.13
2023-04-24T19:09:14.025Z,96798.03
2023-04-24T19:11:43.540Z,96802.38
2023-04-24T19:14:11.748Z,96807.44
2023-04-24T19:16:41.771Z,96808.97
2023-04-24T19:19:09.700Z,96812.47
2023-04-24T19:21:37.682Z,96816.28
2023-04-24T19:24:06.050Z,96816.84
2023-04-24T19:26:34.052Z,96816.19
2023-04-24T19:29:06.259Z,96818.00
2023-04-24T19:31:34.248Z,96824.59
2023-04-24T19:34:03.548Z,96828.66
2023-04-24T19:36:32.456Z,96830.63
2023-04-24T19:39:00.343Z,96819.50
2023-04-24T19:41:28.266Z,96831.44
2023-04-24T19:43:56.446Z,96830.63
2023-04-24T19:46:25.614Z,96839.00
2023-04-24T19:48:54.168Z,96838.63
2023-04-24T19:51:23.752Z,96825.84
2023-04-24T19:53:52.164Z,96826.41
2023-04-24T19:56:20.143Z,96824.97
2023-04-24T19:58:48.512Z,96827.22
2023-04-24T20:01:16.659Z,96823.00
2023-04-24T20:03:44.880Z,96824.41
2023-04-24T20:06:13.159Z,96823.66
2023-04-24T20:08:42.829Z,96825.38
2023-04-24T20:11:10.759Z,96827.16
2023-04-24T20:13:38.690Z,96828.88
2023-04-24T20:16:09.664Z,96829.44
2023-04-24T20:18:39.129Z,96823.97
2023-04-24T20:21:07.450Z,96830.78
2023-04-24T20:23:35.458Z,96831.13
2023-04-24T20:26:05.114Z,96832.88
2023-04-24T20:28:33.496Z,96829.94
2023-04-24T20:31:01.547Z,96842.66
2023-04-24T20:33:30.440Z,96838.94
2023-04-24T20:35:58.637Z,96844.72
2023-04-24T20:38:26.624Z,96845.69
2023-04-24T20:40:58.232Z,96850.00
2023-04-24T20:43:29.110Z,96844.91
2023-04-24T20:45:58.655Z,96854.78
2023-04-24T20:48:26.900Z,96857.81
2023-04-24T20:50:54.952Z,96855.94
2023-04-24T20:53:23.202Z,96861.38
2023-04-24T20:55:51.240Z,96862.16
2023-04-24T20:58:20.888Z,96863.69
2023-04-24T21:00:50.742Z,96859.69
2023-04-24T21:03:18.985Z,96864.22
2023-04-24T21:05:47.107Z,96858.50
2023-04-24T21:08:15.097Z,96871.31
2023-04-24T21:10:43.095Z,96867.69
2023-04-24T21:13:11.309Z,96856.53
2023-04-24T21:15:39.736Z,96860.00
2023-04-24T21:18:09.295Z,96864.84
2023-04-24T21:20:37.247Z,96859.56
2023-04-24T21:23:05.358Z,96863.16
2023-04-24T21:25:33.342Z,96863.50
2023-04-24T21:28:01.564Z,96849.34
2023-04-24T21:30:31.192Z,96847.72
2023-04-24T21:32:59.171Z,96845.91
2023-04-24T21:35:28.692Z,96846.94
2023-04-24T21:37:56.636Z,96851.59
2023-04-24T21:40:24.557Z,96851.34
2023-04-24T21:42:53.023Z,96845.63
2023-04-24T21:45:21.357Z,96852.06
2023-04-24T21:47:49.368Z,96853.56
2023-04-24T21:50:17.371Z,96850.38
2023-04-24T21:52:47.277Z,96860.81
2023-04-24T21:55:15.618Z,96851.94
2023-04-24T21:57:43.665Z,96854.59
2023-04-24T22:00:13.676Z,96848.94
2023-04-24T22:02:42.994Z,96840.72
2023-04-24T22:05:15.652Z,96849.53
2023-04-24T22:07:46.687Z,96847.59
2023-04-24T22:10:17.913Z,96848.59
2023-04-24T22:12:46.194Z,96848.59
2023-04-24T22:15:14.504Z,96851.88
2023-04-24T22:17:43.626Z,96853.31
2023-04-24T22:20:12.208Z,96848.41
2023-04-24T22:22:40.090Z,96848.16
2023-04-24T22:25:08.853Z,96850.72
2023-04-24T22:27:38.139Z,96844.28
2023-04-24T22:30:08.989Z,96845.53
2023-04-24T22:32:37.263Z,96848.63
2023-04-24T22:35:05.635Z,96847.53
2023-04-24T22:37:33.633Z,96853.66
2023-04-24T22:40:01.612Z,96841.94
2023-04-24T22:42:30.185Z,96847.91
2023-04-24T22:44:59.457Z,96850.91
2023-04-24T22:47:27.392Z,96845.16
2023-04-24T22:49:55.312Z,96841.84
2023-04-24T22:52:23.470Z,96845.84
2023-04-24T22:54:52.156Z,96834.84
2023-04-24T22:57:20.083Z,96847.69
2023-04-24T22:59:48.129Z,96839.72
2023-04-24T23:02:17.842Z,96843.97
2023-04-24T23:04:45.877Z,96847.94
2023-04-24T23:07:13.742Z,96841.31
2023-04-24T23:09:41.643Z,96844.81
2023-04-24T23:12:09.496Z,96846.75
2023-04-24T23:14:37.532Z,96847.72
2023-04-24T23:17:05.387Z,96839.09
2023-04-24T23:19:35.114Z,96836.75
2023-04-24T23:22:03.114Z,96842.19
2023-04-24T23:24:31.027Z,96844.50
2023-04-24T23:26:58.881Z,96861.53
2023-04-24T23:29:27.077Z,96850.03
2023-04-24T23:31:54.995Z,96863.56
2023-04-24T23:34:22.916Z,96862.03
2023-04-24T23:36:52.492Z,96860.56
2023-04-24T23:39:20.639Z,96853.94
2023-04-24T23:41:49.476Z,96850.75
2023-04-24T23:44:17.489Z,96853.91
2023-04-24T23:46:45.428Z,96857.31
2023-04-24T23:49:14.739Z,96845.59
2023-04-24T23:51:42.665Z,96856.00
2023-04-24T23:54:12.957Z,96856.94
2023-04-24T23:56:40.883Z,96854.88
2023-04-24T23:59:08.771Z,96855.00
